createdAt,value
2023-05-17T00:00:14.031Z,328
2023-05-17T00:00:44.662Z,291
2023-05-17T00:01:28.606Z,292
2023-05-17T00:02:00.657Z,292
2023-05-17T00:02:32.530Z,292
2023-05-17T00:03:05.433Z,294
2023-05-17T00:03:36.572Z,294
2023-05-17T00:04:08.695Z,293
2023-05-17T00:04:40.564Z,290
2023-05-17T00:04:56.644Z,283
2023-05-17T00:05:42.268Z,284
2023-05-17T00:06:12.466Z,284
2023-05-17T00:06:44.524Z,334
2023-05-17T00:07:16.221Z,295
2023-05-17T00:07:48.259Z,294
2023-05-17T00:08:20.455Z,298
2023-05-17T00:08:52.061Z,297
2023-05-17T00:09:24.226Z,301
2023-05-17T00:09:56.233Z,342
2023-05-17T00:10:28.537Z,295
2023-05-17T00:11:00.305Z,297
2023-05-17T00:11:32.013Z,303
2023-05-17T00:12:04.423Z,328
2023-05-17T00:12:36.146Z,297
2023-05-17T00:13:08.208Z,295
2023-05-17T00:13:40.044Z,294
2023-05-17T00:14:12.043Z,294
2023-05-17T00:14:44.108Z,295
2023-05-17T00:15:18.073Z,294
2023-05-17T00:15:47.878Z,294
2023-05-17T00:16:20.101Z,283
2023-05-17T00:16:51.910Z,281
2023-05-17T00:17:24.086Z,281
2023-05-17T00:17:55.975Z,281
2023-05-17T00:18:27.805Z,276
2023-05-17T00:19:00.253Z,263
2023-05-17T00:19:31.876Z,266
2023-05-17T00:20:06.018Z,269
2023-05-17T00:20:35.895Z,267
2023-05-17T00:21:07.846Z,263
2023-05-17T00:21:39.828Z,266
2023-05-17T00:22:11.578Z,266
2023-05-17T00:22:43.671Z,256
2023-05-17T00:23:15.730Z,261
2023-05-17T00:23:47.705Z,261
2023-05-17T00:24:19.442Z,261
2023-05-17T00:24:51.694Z,261
2023-05-17T00:25:23.956Z,263
2023-05-17T00:25:55.605Z,264
2023-05-17T00:26:27.465Z,266
2023-05-17T00:26:43.581Z,260
2023-05-17T00:27:15.669Z,278
2023-05-17T00:27:59.835Z,240
2023-05-17T00:28:31.478Z,240
2023-05-17T00:29:04.436Z,240
2023-05-17T00:29:35.530Z,240
2023-05-17T00:30:08.711Z,229
2023-05-17T00:30:39.623Z,218
2023-05-17T00:31:11.261Z,234
2023-05-17T00:31:27.361Z,234
2023-05-17T00:32:11.310Z,238
2023-05-17T00:32:43.327Z,305
2023-05-17T00:33:15.341Z,247
2023-05-17T00:33:47.197Z,246
2023-05-17T00:34:19.167Z,258
2023-05-17T00:34:51.279Z,253
2023-05-17T00:35:23.591Z,252
2023-05-17T00:35:55.049Z,250
2023-05-17T00:36:11.272Z,227
2023-05-17T00:36:42.914Z,230
2023-05-17T00:37:27.290Z,322
2023-05-17T00:37:59.411Z,312
2023-05-17T00:38:31.087Z,293
2023-05-17T00:39:04.014Z,284
2023-05-17T00:39:35.101Z,273
2023-05-17T00:40:07.324Z,273
2023-05-17T00:40:38.945Z,267
2023-05-17T00:40:55.336Z,268
2023-05-17T00:41:39.136Z,267
2023-05-17T00:42:10.982Z,272
2023-05-17T00:42:42.808Z,252
2023-05-17T00:43:14.869Z,240
2023-05-17T00:43:30.919Z,296
2023-05-17T00:44:03.441Z,296
2023-05-17T00:44:46.809Z,248
2023-05-17T00:45:19.286Z,240
2023-05-17T00:45:50.753Z,241
2023-05-17T00:46:22.640Z,245
2023-05-17T00:46:54.839Z,249
2023-05-17T00:47:26.655Z,219
2023-05-17T00:47:42.689Z,220
2023-05-17T00:48:14.868Z,220
2023-05-17T00:48:58.525Z,209
2023-05-17T00:49:30.786Z,209
2023-05-17T00:50:03.521Z,218
2023-05-17T00:50:34.423Z,218
2023-05-17T00:51:06.640Z,218
2023-05-17T00:51:38.751Z,218
2023-05-17T00:52:10.387Z,248
2023-05-17T00:52:26.503Z,275
2023-05-17T00:53:10.445Z,264
2023-05-17T00:53:26.544Z,259
2023-05-17T00:54:10.403Z,250
2023-05-17T00:54:42.417Z,209
2023-05-17T00:55:14.658Z,223
2023-05-17T00:55:46.388Z,220
2023-05-17T00:56:18.166Z,219
2023-05-17T00:56:50.377Z,220
2023-05-17T00:57:22.005Z,241
2023-05-17T00:57:54.328Z,220
2023-05-17T00:58:26.224Z,232
2023-05-17T00:58:58.230Z,310
2023-05-17T00:59:30.003Z,353
2023-05-17T01:00:05.293Z,351
2023-05-17T01:00:34.086Z,311
2023-05-17T01:01:06.210Z,295
2023-05-17T01:01:37.881Z,292
2023-05-17T01:01:54.227Z,285
2023-05-17T01:02:37.985Z,211
2023-05-17T01:02:54.364Z,210
2023-05-17T01:03:38.163Z,235
2023-05-17T01:04:10.357Z,237
2023-05-17T01:04:41.885Z,228
2023-05-17T01:05:14.093Z,228
2023-05-17T01:05:46.122Z,228
2023-05-17T01:06:17.969Z,241
2023-05-17T01:06:49.721Z,226
2023-05-17T01:07:21.745Z,226
2023-05-17T01:07:53.860Z,227
2023-05-17T01:08:25.865Z,226
2023-05-17T01:08:57.654Z,225
2023-05-17T01:09:30.629Z,231
2023-05-17T01:10:01.928Z,233
2023-05-17T01:10:33.734Z,226
2023-05-17T01:11:05.595Z,233
2023-05-17T01:11:37.528Z,232
2023-05-17T01:11:53.750Z,233
2023-05-17T01:12:25.556Z,233
2023-05-17T01:12:41.689Z,233
2023-05-17T01:13:13.485Z,264
2023-05-17T01:13:45.721Z,265
2023-05-17T01:14:17.494Z,260
2023-05-17T01:14:49.516Z,261
2023-05-17T01:15:21.786Z,252
2023-05-17T01:15:53.505Z,253
2023-05-17T01:16:09.753Z,248
2023-05-17T01:16:41.337Z,244
2023-05-17T01:17:25.531Z,244
2023-05-17T01:17:57.373Z,278
2023-05-17T01:18:29.483Z,248
2023-05-17T01:19:01.499Z,248
2023-05-17T01:19:33.427Z,249
2023-05-17T01:20:05.627Z,249
2023-05-17T01:20:37.466Z,343
2023-05-17T01:20:53.706Z,343
2023-05-17T01:21:37.424Z,304
2023-05-17T01:22:09.589Z,288
2023-05-17T01:22:41.200Z,251
2023-05-17T01:23:13.225Z,243
2023-05-17T01:23:45.364Z,243
2023-05-17T01:24:17.087Z,243
2023-05-17T01:24:49.187Z,243
2023-05-17T01:25:21.481Z,243
2023-05-17T01:25:53.149Z,243
2023-05-17T01:26:25.120Z,243
2023-05-17T01:26:56.872Z,243
2023-05-17T01:27:29.082Z,243
2023-05-17T01:28:01.621Z,243
2023-05-17T01:28:33.026Z,340
2023-05-17T01:29:05.146Z,296
2023-05-17T01:29:37.025Z,296
2023-05-17T01:29:53.154Z,290
2023-05-17T01:30:25.333Z,252
2023-05-17T01:30:40.924Z,198
2023-05-17T01:31:12.802Z,217
2023-05-17T01:31:44.755Z,346
2023-05-17T01:32:16.784Z,332
2023-05-17T01:32:49.063Z,332
2023-05-17T01:33:20.713Z,293
2023-05-17T01:33:52.730Z,282
2023-05-17T01:34:09.046Z,282
2023-05-17T01:34:40.927Z,283
2023-05-17T01:35:25.031Z,284
2023-05-17T01:35:56.463Z,310
2023-05-17T01:36:28.585Z,292
2023-05-17T01:37:00.575Z,288
2023-05-17T01:37:32.543Z,279
2023-05-17T01:38:05.015Z,185
2023-05-17T01:38:36.550Z,141
2023-05-17T01:38:52.679Z,156
2023-05-17T01:39:36.566Z,81
2023-05-17T01:40:09.003Z,91
2023-05-17T01:40:40.728Z,38
2023-05-17T01:41:12.360Z,290
2023-05-17T01:41:44.330Z,277
2023-05-17T01:42:16.613Z,281
2023-05-17T01:42:48.239Z,165
2023-05-17T01:43:20.302Z,151
2023-05-17T01:43:52.392Z,159
2023-05-17T01:44:24.537Z,184
2023-05-17T01:44:56.238Z,184
2023-05-17T01:45:28.877Z,185
2023-05-17T01:46:00.457Z,185
2023-05-17T01:46:32.170Z,184
2023-05-17T01:47:05.023Z,184
2023-05-17T01:47:36.287Z,184
2023-05-17T01:48:08.276Z,195
2023-05-17T01:48:40.540Z,258
2023-05-17T01:49:12.004Z,258
2023-05-17T01:49:44.064Z,258
2023-05-17T01:50:16.421Z,258
2023-05-17T01:50:48.127Z,269
2023-05-17T01:51:20.002Z,276
2023-05-17T01:51:51.995Z,276
2023-05-17T01:52:07.999Z,276
2023-05-17T01:52:40.323Z,275
2023-05-17T01:53:23.972Z,285
2023-05-17T01:53:55.776Z,277
2023-05-17T01:54:27.909Z,245
2023-05-17T01:54:59.888Z,254
2023-05-17T01:55:32.153Z,258
2023-05-17T01:56:04.502Z,288
2023-05-17T01:56:35.635Z,283
2023-05-17T01:56:51.936Z,279
2023-05-17T01:57:35.746Z,280
2023-05-17T01:58:07.983Z,280
2023-05-17T01:58:39.918Z,286
2023-05-17T01:59:11.593Z,287
2023-05-17T01:59:43.781Z,287
2023-05-17T02:00:17.706Z,287
2023-05-17T02:00:49.178Z,263
2023-05-17T02:01:20.739Z,261
2023-05-17T02:01:51.779Z,264
2023-05-17T02:02:23.672Z,301
2023-05-17T02:02:55.794Z,292
2023-05-17T02:03:27.460Z,286
2023-05-17T02:03:59.635Z,266
2023-05-17T02:04:31.593Z,272
2023-05-17T02:05:05.034Z,267
2023-05-17T02:05:35.309Z,266
2023-05-17T02:06:07.424Z,256
2023-05-17T02:06:39.526Z,281
2023-05-17T02:07:11.360Z,277
2023-05-17T02:07:43.193Z,267
2023-05-17T02:08:15.371Z,272
2023-05-17T02:08:47.442Z,273
2023-05-17T02:09:19.245Z,264
2023-05-17T02:09:51.276Z,264
2023-05-17T02:10:07.567Z,264
2023-05-17T02:10:39.297Z,261
2023-05-17T02:11:23.183Z,261
2023-05-17T02:11:55.042Z,261
2023-05-17T02:12:27.107Z,262
2023-05-17T02:12:59.049Z,262
2023-05-17T02:13:31.113Z,261
2023-05-17T02:14:03.286Z,261
2023-05-17T02:14:35.040Z,261
2023-05-17T02:14:51.247Z,262
2023-05-17T02:15:35.426Z,262
2023-05-17T02:16:07.082Z,262
2023-05-17T02:16:38.789Z,253
2023-05-17T02:17:10.947Z,262
2023-05-17T02:17:43.009Z,261
2023-05-17T02:18:14.972Z,261
2023-05-17T02:18:46.915Z,272
2023-05-17T02:19:18.899Z,208
2023-05-17T02:19:50.856Z,208
2023-05-17T02:20:23.128Z,208
2023-05-17T02:20:54.691Z,209
2023-05-17T02:21:26.580Z,209
2023-05-17T02:21:58.671Z,236
2023-05-17T02:22:30.773Z,236
2023-05-17T02:23:03.087Z,236
2023-05-17T02:23:34.607Z,236
2023-05-17T02:23:50.747Z,236
2023-05-17T02:24:22.584Z,236
2023-05-17T02:24:38.560Z,236
2023-05-17T02:25:10.925Z,249
2023-05-17T02:25:42.492Z,250
2023-05-17T02:26:14.536Z,251
2023-05-17T02:26:46.707Z,251
2023-05-17T02:27:18.867Z,250
2023-05-17T02:27:50.545Z,250
2023-05-17T02:28:22.499Z,250
2023-05-17T02:28:54.663Z,250
2023-05-17T02:29:26.526Z,252
2023-05-17T02:29:58.418Z,252
2023-05-17T02:30:30.844Z,252
2023-05-17T02:31:02.492Z,252
2023-05-17T02:31:34.470Z,252
2023-05-17T02:32:06.173Z,252
2023-05-17T02:32:22.395Z,254
2023-05-17T02:32:54.225Z,258
2023-05-17T02:33:38.520Z,259
2023-05-17T02:34:10.402Z,259
2023-05-17T02:34:42.120Z,260
2023-05-17T02:35:14.891Z,261
2023-05-17T02:35:46.200Z,218
2023-05-17T02:36:18.085Z,219
2023-05-17T02:36:50.308Z,220
2023-05-17T02:37:06.320Z,220
2023-05-17T02:37:50.130Z,220
2023-05-17T02:38:22.095Z,220
2023-05-17T02:38:54.008Z,220
2023-05-17T02:39:25.997Z,200
2023-05-17T02:39:57.938Z,200
2023-05-17T02:40:30.218Z,200
2023-05-17T02:41:02.327Z,200
2023-05-17T02:41:33.784Z,191
2023-05-17T02:41:50.138Z,191
2023-05-17T02:42:21.818Z,191
2023-05-17T02:42:37.904Z,191
2023-05-17T02:43:09.856Z,191
2023-05-17T02:43:41.769Z,191
2023-05-17T02:44:13.852Z,191
2023-05-17T02:44:45.827Z,191
2023-05-17T02:45:18.750Z,191
2023-05-17T02:45:49.842Z,191
2023-05-17T02:46:05.803Z,191
2023-05-17T02:46:38.484Z,191
2023-05-17T02:47:21.875Z,191
2023-05-17T02:47:53.635Z,191
2023-05-17T02:48:25.950Z,191
2023-05-17T02:48:57.640Z,191
2023-05-17T02:49:29.659Z,191
2023-05-17T02:50:01.894Z,191
2023-05-17T02:50:33.579Z,191
2023-05-17T02:51:05.744Z,191
2023-05-17T02:51:37.594Z,191
2023-05-17T02:52:09.516Z,191
2023-05-17T02:52:41.314Z,191
2023-05-17T02:53:13.415Z,191
2023-05-17T02:53:45.449Z,191
2023-05-17T02:54:17.359Z,191
2023-05-17T02:54:49.429Z,191
2023-05-17T02:55:21.668Z,191
2023-05-17T02:55:53.579Z,191
2023-05-17T02:56:25.397Z,191
2023-05-17T02:56:57.174Z,191
2023-05-17T02:57:29.548Z,191
2023-05-17T02:58:01.519Z,191
2023-05-17T02:58:33.013Z,191
2023-05-17T02:58:49.543Z,191
2023-05-17T02:59:21.091Z,191
2023-05-17T02:59:37.256Z,191
2023-05-17T03:00:10.860Z,191
2023-05-17T03:00:41.152Z,191
2023-05-17T03:01:13.111Z,191
2023-05-17T03:01:45.029Z,191
2023-05-17T03:02:17.156Z,191
2023-05-17T03:02:49.343Z,191
2023-05-17T03:03:05.558Z,191
2023-05-17T03:03:37.141Z,191
2023-05-17T03:04:21.029Z,191
2023-05-17T03:04:52.899Z,191
2023-05-17T03:05:25.098Z,191
2023-05-17T03:05:56.724Z,191
2023-05-17T03:06:28.946Z,191
2023-05-17T03:07:00.815Z,191
2023-05-17T03:07:32.696Z,191
2023-05-17T03:07:49.111Z,191
2023-05-17T03:08:32.734Z,191
2023-05-17T03:09:05.304Z,191
2023-05-17T03:09:36.815Z,191
2023-05-17T03:10:09.020Z,191
2023-05-17T03:10:40.746Z,191
2023-05-17T03:11:12.711Z,191
2023-05-17T03:11:44.626Z,191
2023-05-17T03:12:16.704Z,191
2023-05-17T03:12:48.779Z,191
2023-05-17T03:13:20.761Z,191
2023-05-17T03:13:52.538Z,191
2023-05-17T03:14:24.618Z,191
2023-05-17T03:14:56.619Z,191
2023-05-17T03:15:29.329Z,191
2023-05-17T03:16:00.509Z,191
2023-05-17T03:16:32.389Z,191
2023-05-17T03:17:05.084Z,191
2023-05-17T03:17:36.524Z,191
2023-05-17T03:18:08.651Z,191
2023-05-17T03:18:40.849Z,191
2023-05-17T03:19:12.446Z,191
2023-05-17T03:19:44.520Z,191
2023-05-17T03:20:16.554Z,191
2023-05-17T03:20:48.272Z,191
2023-05-17T03:21:20.526Z,191
2023-05-17T03:21:52.395Z,191
2023-05-17T03:22:24.141Z,191
2023-05-17T03:22:56.185Z,191
2023-05-17T03:23:28.314Z,191
2023-05-17T03:24:00.056Z,191
2023-05-17T03:24:31.975Z,191
2023-05-17T03:24:48.185Z,191
2023-05-17T03:25:32.287Z,191
2023-05-17T03:26:04.435Z,191
2023-05-17T03:26:35.884Z,191
2023-05-17T03:27:07.944Z,191
2023-05-17T03:27:40.332Z,191
2023-05-17T03:28:11.894Z,191
2023-05-17T03:28:43.966Z,191
2023-05-17T03:29:15.843Z,191
2023-05-17T03:29:47.814Z,191
2023-05-17T03:30:20.576Z,191
2023-05-17T03:30:51.690Z,191
2023-05-17T03:31:23.849Z,191
2023-05-17T03:31:55.902Z,191
2023-05-17T03:32:27.781Z,191
2023-05-17T03:32:59.876Z,191
2023-05-17T03:33:31.754Z,191
2023-05-17T03:34:04.212Z,191
2023-05-17T03:34:35.734Z,191
2023-05-17T03:35:07.721Z,191
2023-05-17T03:35:39.619Z,191
2023-05-17T03:36:11.610Z,191
2023-05-17T03:36:43.702Z,191
2023-05-17T03:37:15.399Z,191
2023-05-17T03:37:47.510Z,191
2023-05-17T03:38:04.012Z,191
2023-05-17T03:38:35.608Z,191
2023-05-17T03:39:19.808Z,191
2023-05-17T03:39:51.319Z,191
2023-05-17T03:40:23.736Z,191
2023-05-17T03:40:55.747Z,191
2023-05-17T03:41:27.220Z,191
2023-05-17T03:41:59.503Z,191
2023-05-17T03:42:31.351Z,191
2023-05-17T03:43:03.864Z,191
2023-05-17T03:43:35.259Z,191
2023-05-17T03:44:07.354Z,191
2023-05-17T03:44:39.301Z,191
2023-05-17T03:45:12.774Z,191
2023-05-17T03:45:43.367Z,191
2023-05-17T03:46:15.275Z,191
2023-05-17T03:46:47.362Z,191
2023-05-17T03:47:19.617Z,191
2023-05-17T03:47:51.249Z,191
2023-05-17T03:48:23.384Z,191
2023-05-17T03:48:55.820Z,191
2023-05-17T03:49:27.314Z,191
2023-05-17T03:49:59.375Z,191
2023-05-17T03:50:31.367Z,191
2023-05-17T03:50:47.315Z,191
2023-05-17T03:51:19.490Z,191
2023-05-17T03:51:35.293Z,191
2023-05-17T03:52:07.031Z,191
2023-05-17T03:52:39.178Z,191
2023-05-17T03:53:11.215Z,191
2023-05-17T03:53:43.137Z,191
2023-05-17T03:54:14.993Z,191
2023-05-17T03:54:48.321Z,191
2023-05-17T03:55:03.970Z,191
2023-05-17T03:55:34.944Z,191
2023-05-17T03:56:19.059Z,191
2023-05-17T03:56:51.040Z,191
2023-05-17T03:57:22.913Z,191
2023-05-17T03:57:55.063Z,191
2023-05-17T03:58:27.144Z,191
2023-05-17T03:58:58.970Z,191
2023-05-17T03:59:30.824Z,191
2023-05-17T03:59:47.005Z,191
2023-05-17T04:00:33.167Z,191
2023-05-17T04:01:03.386Z,191
2023-05-17T04:01:34.851Z,191
2023-05-17T04:02:06.658Z,191
2023-05-17T04:02:38.803Z,191
2023-05-17T04:03:10.871Z,191
2023-05-17T04:03:42.576Z,191
2023-05-17T04:04:14.751Z,191
2023-05-17T04:04:46.817Z,191
2023-05-17T04:05:19.081Z,191
2023-05-17T04:05:50.742Z,191
2023-05-17T04:06:22.465Z,191
2023-05-17T04:06:54.601Z,191
2023-05-17T04:07:26.716Z,191
2023-05-17T04:07:58.512Z,191
2023-05-17T04:08:30.427Z,191
2023-05-17T04:09:03.223Z,191
2023-05-17T04:09:34.501Z,191
2023-05-17T04:10:06.619Z,191
2023-05-17T04:10:38.431Z,191
2023-05-17T04:11:10.680Z,191
2023-05-17T04:11:42.254Z,191
2023-05-17T04:12:14.322Z,191
2023-05-17T04:12:46.222Z,191
2023-05-17T04:13:02.981Z,191
2023-05-17T04:13:34.263Z,191
2023-05-17T04:14:18.339Z,191
2023-05-17T04:14:50.377Z,191
2023-05-17T04:15:22.553Z,191
2023-05-17T04:15:54.222Z,191
2023-05-17T04:16:26.379Z,191
2023-05-17T04:16:58.026Z,191
2023-05-17T04:17:30.361Z,191
2023-05-17T04:18:02.746Z,191
2023-05-17T04:18:34.087Z,191
2023-05-17T04:19:06.113Z,191
2023-05-17T04:19:38.066Z,191
2023-05-17T04:20:10.550Z,191
2023-05-17T04:20:42.151Z,191
2023-05-17T04:21:13.858Z,191
2023-05-17T04:21:45.867Z,191
2023-05-17T04:22:02.537Z,191
2023-05-17T04:22:45.798Z,191
2023-05-17T04:23:17.999Z,191
2023-05-17T04:23:49.818Z,191
2023-05-17T04:24:21.637Z,191
2023-05-17T04:24:53.881Z,191
2023-05-17T04:25:27.666Z,191
2023-05-17T04:25:57.547Z,191
2023-05-17T04:26:29.854Z,191
2023-05-17T04:26:47.464Z,191
2023-05-17T04:27:17.526Z,191
2023-05-17T04:27:33.684Z,191
2023-05-17T04:28:05.676Z,191
2023-05-17T04:28:37.567Z,191
2023-05-17T04:29:09.704Z,191
2023-05-17T04:29:41.615Z,191
2023-05-17T04:30:16.099Z,191
2023-05-17T04:30:47.481Z,191
2023-05-17T04:31:01.933Z,191
2023-05-17T04:31:33.380Z,191
2023-05-17T04:32:17.627Z,191
2023-05-17T04:32:49.610Z,191
2023-05-17T04:33:21.631Z,191
2023-05-17T04:33:53.551Z,191
2023-05-17T04:34:25.717Z,191
2023-05-17T04:34:57.342Z,191
2023-05-17T04:35:30.205Z,191
2023-05-17T04:35:45.497Z,191
2023-05-17T04:36:29.487Z,191
2023-05-17T04:37:01.763Z,191
2023-05-17T04:37:33.205Z,191
2023-05-17T04:38:05.313Z,191
2023-05-17T04:38:37.147Z,191
2023-05-17T04:39:09.481Z,191
2023-05-17T04:39:41.199Z,191
2023-05-17T04:40:13.200Z,191
2023-05-17T04:40:45.261Z,191
2023-05-17T04:41:17.212Z,191
2023-05-17T04:41:48.951Z,191
2023-05-17T04:42:21.132Z,191
2023-05-17T04:42:52.977Z,191
2023-05-17T04:43:25.035Z,191
2023-05-17T04:43:56.978Z,191
2023-05-17T04:44:29.192Z,191
2023-05-17T04:45:03.924Z,191
2023-05-17T04:45:32.968Z,190
2023-05-17T04:46:05.198Z,191
2023-05-17T04:46:36.824Z,191
2023-05-17T04:47:08.954Z,191
2023-05-17T04:47:41.060Z,191
2023-05-17T04:48:12.837Z,191
2023-05-17T04:48:44.960Z,191
2023-05-17T04:49:01.132Z,191
2023-05-17T04:49:32.627Z,191
2023-05-17T04:50:17.208Z,191
2023-05-17T04:50:49.972Z,191
2023-05-17T04:51:22.269Z,191
2023-05-17T04:51:52.750Z,191
2023-05-17T04:52:24.914Z,191
2023-05-17T04:52:56.711Z,191
2023-05-17T04:53:12.831Z,191
2023-05-17T04:53:44.818Z,191
2023-05-17T04:54:28.652Z,191
2023-05-17T04:55:01.008Z,191
2023-05-17T04:55:32.378Z,191
2023-05-17T04:56:04.757Z,191
2023-05-17T04:56:36.585Z,191
2023-05-17T04:57:08.543Z,191
2023-05-17T04:57:40.455Z,191
2023-05-17T04:58:12.446Z,191
2023-05-17T04:58:44.424Z,191
2023-05-17T04:59:16.258Z,191
2023-05-17T04:59:48.185Z,191
2023-05-17T05:00:21.437Z,191
2023-05-17T05:00:52.152Z,191
2023-05-17T05:01:24.349Z,191
2023-05-17T05:01:56.176Z,191
2023-05-17T05:02:27.990Z,191
2023-05-17T05:02:44.411Z,191
2023-05-17T05:03:16.126Z,191
2023-05-17T05:03:32.180Z,191
2023-05-17T05:04:04.811Z,191
2023-05-17T05:04:36.177Z,191
2023-05-17T05:05:08.514Z,191
2023-05-17T05:05:40.203Z,191
2023-05-17T05:06:11.949Z,191
2023-05-17T05:06:44.119Z,191
2023-05-17T05:07:02.075Z,191
2023-05-17T05:07:31.885Z,191
2023-05-17T05:08:15.942Z,191
2023-05-17T05:08:47.960Z,191
2023-05-17T05:09:20.039Z,191
2023-05-17T05:09:51.930Z,191
2023-05-17T05:10:25.989Z,191
2023-05-17T05:10:55.846Z,191
2023-05-17T05:11:27.747Z,191
2023-05-17T05:11:59.929Z,191
2023-05-17T05:12:31.974Z,191
2023-05-17T05:13:04.567Z,191
2023-05-17T05:13:35.834Z,191
2023-05-17T05:14:07.691Z,191
2023-05-17T05:14:39.862Z,191
2023-05-17T05:15:12.901Z,191
2023-05-17T05:15:43.675Z,191
2023-05-17T05:16:00.080Z,191
2023-05-17T05:16:43.525Z,191
2023-05-17T05:17:15.843Z,191
2023-05-17T05:17:47.630Z,191
2023-05-17T05:18:19.536Z,191
2023-05-17T05:18:51.709Z,191
2023-05-17T05:19:23.699Z,191
2023-05-17T05:19:57.112Z,191
2023-05-17T05:20:28.054Z,191
2023-05-17T05:20:43.558Z,191
2023-05-17T05:21:15.398Z,191
2023-05-17T05:21:31.419Z,191
2023-05-17T05:22:03.966Z,191
2023-05-17T05:22:35.494Z,191
2023-05-17T05:23:07.252Z,191
2023-05-17T05:23:39.678Z,191
2023-05-17T05:24:11.390Z,191
2023-05-17T05:24:43.250Z,191
2023-05-17T05:24:59.472Z,191
2023-05-17T05:25:31.675Z,191
2023-05-17T05:26:15.333Z,191
2023-05-17T05:26:47.079Z,191
2023-05-17T05:27:19.059Z,191
2023-05-17T05:27:51.198Z,191
2023-05-17T05:28:23.282Z,191
2023-05-17T05:28:55.134Z,190
2023-05-17T05:29:27.099Z,191
2023-05-17T05:29:43.150Z,191
2023-05-17T05:30:27.455Z,191
2023-05-17T05:30:59.059Z,191
2023-05-17T05:31:31.206Z,191
2023-05-17T05:32:03.864Z,190
2023-05-17T05:32:35.061Z,191
2023-05-17T05:33:07.377Z,190
2023-05-17T05:33:39.133Z,190
2023-05-17T05:34:11.022Z,191
2023-05-17T05:34:42.944Z,191
2023-05-17T05:35:15.330Z,191
2023-05-17T05:35:48.490Z,191
2023-05-17T05:36:18.723Z,191
2023-05-17T05:36:50.919Z,190
2023-05-17T05:37:22.914Z,190
2023-05-17T05:37:55.060Z,216
2023-05-17T05:38:26.715Z,216
2023-05-17T05:38:42.849Z,216
2023-05-17T05:39:14.750Z,216
2023-05-17T05:39:30.878Z,216
2023-05-17T05:40:05.671Z,215
2023-05-17T05:40:34.638Z,212
2023-05-17T05:41:06.937Z,190
2023-05-17T05:41:38.633Z,191
2023-05-17T05:42:10.662Z,191
2023-05-17T05:42:42.436Z,191
2023-05-17T05:42:58.637Z,191
2023-05-17T05:43:30.642Z,191
2023-05-17T05:44:14.788Z,191
2023-05-17T05:44:46.489Z,191
2023-05-17T05:45:18.919Z,191
2023-05-17T05:45:50.468Z,191
2023-05-17T05:46:22.622Z,191
2023-05-17T05:46:54.512Z,191
2023-05-17T05:47:26.298Z,191
2023-05-17T05:47:59.001Z,191
2023-05-17T05:48:30.543Z,153
2023-05-17T05:49:02.831Z,70
2023-05-17T05:49:34.333Z,82
2023-05-17T05:50:06.424Z,89
2023-05-17T05:50:38.439Z,128
2023-05-17T05:51:10.270Z,143
2023-05-17T05:51:42.060Z,83
2023-05-17T05:52:14.192Z,123
2023-05-17T05:52:46.378Z,110
2023-05-17T05:53:19.768Z,91
2023-05-17T05:53:50.036Z,131
2023-05-17T05:54:22.128Z,123
2023-05-17T05:54:54.078Z,115
2023-05-17T05:55:27.502Z,159
2023-05-17T05:55:42.151Z,131
2023-05-17T05:56:13.850Z,202
2023-05-17T05:56:30.236Z,172
2023-05-17T05:57:01.937Z,108
2023-05-17T05:57:33.855Z,121
2023-05-17T05:58:05.951Z,124
2023-05-17T05:58:37.773Z,149
2023-05-17T05:59:10.057Z,174
2023-05-17T05:59:41.799Z,246
2023-05-17T05:59:57.875Z,283
2023-05-17T06:00:30.392Z,227
2023-05-17T06:01:13.932Z,227
2023-05-17T06:01:45.671Z,227
2023-05-17T06:02:17.790Z,130
2023-05-17T06:02:49.842Z,146
2023-05-17T06:03:21.716Z,166
2023-05-17T06:03:53.783Z,108
2023-05-17T06:04:33.030Z,135
2023-05-17T06:04:48.036Z,156
2023-05-17T06:05:28.036Z,179
2023-05-17T06:05:57.695Z,179
2023-05-17T06:06:29.767Z,179
2023-05-17T06:07:01.656Z,179
2023-05-17T06:07:33.561Z,179
2023-05-17T06:08:07.055Z,179
2023-05-17T06:08:37.455Z,179
2023-05-17T06:09:09.983Z,278
2023-05-17T06:09:41.748Z,230
2023-05-17T06:10:16.006Z,143
2023-05-17T06:10:45.572Z,93
2023-05-17T06:11:17.573Z,139
2023-05-17T06:11:49.757Z,123
2023-05-17T06:12:21.652Z,135
2023-05-17T06:12:53.548Z,138
2023-05-17T06:13:25.559Z,129
2023-05-17T06:13:57.489Z,126
2023-05-17T06:14:29.338Z,100
2023-05-17T06:15:04.065Z,110
2023-05-17T06:15:33.192Z,91
2023-05-17T06:16:05.410Z,148
2023-05-17T06:16:42.571Z,211
2023-05-17T06:17:09.355Z,114
2023-05-17T06:17:41.355Z,149
2023-05-17T06:17:57.188Z,185
2023-05-17T06:18:29.392Z,106
2023-05-17T06:19:13.375Z,126
2023-05-17T06:19:45.365Z,103
2023-05-17T06:20:18.754Z,151
2023-05-17T06:20:49.365Z,140
2023-05-17T06:21:22.887Z,125
2023-05-17T06:21:52.972Z,144
2023-05-17T06:22:25.346Z,143
2023-05-17T06:22:57.122Z,116
2023-05-17T06:23:29.074Z,114
2023-05-17T06:24:02.882Z,115
2023-05-17T06:24:33.419Z,188
2023-05-17T06:25:05.546Z,156
2023-05-17T06:25:37.075Z,202
2023-05-17T06:26:08.994Z,208
2023-05-17T06:26:40.827Z,177
2023-05-17T06:27:13.000Z,134
2023-05-17T06:27:45.046Z,157
2023-05-17T06:28:16.773Z,272
2023-05-17T06:28:48.875Z,248
2023-05-17T06:29:20.998Z,192
2023-05-17T06:29:52.732Z,186
2023-05-17T06:30:27.391Z,206
2023-05-17T06:30:56.561Z,162
2023-05-17T06:31:28.939Z,101
2023-05-17T06:32:00.758Z,129
2023-05-17T06:32:32.601Z,88
2023-05-17T06:33:05.404Z,114
2023-05-17T06:33:36.917Z,123
2023-05-17T06:34:08.828Z,125
2023-05-17T06:34:40.799Z,180
2023-05-17T06:35:13.184Z,134
2023-05-17T06:35:56.208Z,104
2023-05-17T06:36:16.484Z,95
2023-05-17T06:36:49.579Z,127
2023-05-17T06:37:20.421Z,97
2023-05-17T06:37:52.541Z,117
2023-05-17T06:38:24.298Z,193
2023-05-17T06:38:57.927Z,233
2023-05-17T06:39:28.144Z,293
2023-05-17T06:40:10.286Z,164
2023-05-17T06:40:32.219Z,179
2023-05-17T06:41:04.667Z,183
2023-05-17T06:41:36.330Z,282
2023-05-17T06:42:08.255Z,193
2023-05-17T06:42:40.265Z,194
2023-05-17T06:42:56.332Z,188
2023-05-17T06:43:40.544Z,266
2023-05-17T06:43:56.334Z,189
2023-05-17T06:44:41.538Z,199
2023-05-17T06:45:15.337Z,140
2023-05-17T06:45:44.990Z,80
2023-05-17T06:46:16.166Z,103
2023-05-17T06:46:48.067Z,56
2023-05-17T06:47:20.120Z,51
2023-05-17T06:47:52.037Z,212
2023-05-17T06:48:24.231Z,198
2023-05-17T06:48:40.725Z,147
2023-05-17T06:49:12.150Z,101
2023-05-17T06:49:28.039Z,130
2023-05-17T06:49:59.893Z,73
2023-05-17T06:50:33.854Z,120
2023-05-17T06:51:04.524Z,55
2023-05-17T06:51:35.915Z,102
2023-05-17T06:52:07.886Z,349
2023-05-17T06:52:40.164Z,34
2023-05-17T06:52:55.905Z,104
2023-05-17T06:53:27.762Z,85
2023-05-17T06:54:11.909Z,107
2023-05-17T06:54:43.793Z,121
2023-05-17T06:55:18.178Z,143
2023-05-17T06:55:47.672Z,114
2023-05-17T06:56:19.789Z,149
2023-05-17T06:56:51.754Z,138
2023-05-17T06:57:23.953Z,43
2023-05-17T06:57:55.819Z,113
2023-05-17T06:58:27.496Z,126
2023-05-17T06:58:59.592Z,117
2023-05-17T06:59:31.732Z,79
2023-05-17T07:00:06.527Z,50
2023-05-17T07:00:35.647Z,105
2023-05-17T07:01:07.475Z,74
2023-05-17T07:01:39.664Z,160
2023-05-17T07:02:11.559Z,220
2023-05-17T07:02:43.730Z,180
2023-05-17T07:03:15.684Z,189
2023-05-17T07:03:47.371Z,205
2023-05-17T07:04:19.766Z,205
2023-05-17T07:04:51.460Z,213
2023-05-17T07:05:25.840Z,138
2023-05-17T07:05:41.661Z,94
2023-05-17T07:06:11.256Z,78
2023-05-17T07:06:27.351Z,132
2023-05-17T07:07:01.315Z,125
2023-05-17T07:07:31.438Z,107
2023-05-17T07:08:04.500Z,155
2023-05-17T07:08:35.304Z,198
2023-05-17T07:09:07.368Z,213
2023-05-17T07:09:39.422Z,232
2023-05-17T07:09:55.315Z,200
2023-05-17T07:10:27.520Z,253